Valley Peak, Santa Cruz Island Reserve, California Weather observations

Data are for 10 minute period ending at time listed.
 Day   Time   Solar   Ave.   Ave.  Ave.  Vector  Max.   Baro.   Total    
  of    of     Rad.   Air    Rel.  Wind   Wind   Wind  Press.  Precip.   
Year   Day            Temp.  Hum.  Speed  Dir.   Gust                    
2017   (PST)  Kw/m2    F      %     mph   deg.    mph    mb.     in.     
-------------------------------------------------------------------------
  83   17:00   0.11   59.0    60    4.9   257     8.6   971.0    0.00 
  83   17:10   0.12   56.8    56    7.5   283    12.3   971.1    0.00 
  83   17:20   0.10   57.3    43    8.3   286    12.6   971.0    0.00 
  83   17:30   0.07   56.3    40    9.1   278    13.4   971.0    0.00 
  83   17:40   0.06   55.5    41    9.5   270    14.9   971.2    0.00 
  83   17:50   0.04   55.0    41    9.8   272    15.4   971.1    0.00 
  83   18:00   0.02   54.8    38    8.1   277    11.3   971.1    0.00 
  83   18:10   0.00   55.2    34    7.0   283     9.9   971.1    0.00 
  83   18:20   0.00   55.2    35    8.8   278    12.2   971.1    0.00 
  83   18:30   0.00   54.6    38    7.4   279    10.8   971.1    0.00 
  83   18:40   0.00   54.2    43    9.1   270    15.2   971.2    0.00 
  83   18:50   0.00   53.5    52    9.1   269    16.4   971.3    0.00 
  83   19:00   0.00   51.4    78   10.7   246    14.4   971.3    0.00 
  83   19:10   0.00   50.8    83   11.1   245    17.0   971.3    0.00 
  83   19:20   0.00   50.7    87   12.5   246    18.0   971.4    0.00 
  83   19:30   0.00   50.9    84   11.8   254    16.7   971.4    0.00 
  83   19:40   0.00   52.3    72    9.6   274    15.9   971.5    0.00 
  83   19:50   0.00   53.2    70   10.8   273    15.6   971.5    0.00 
  83   20:00   0.00   53.5    71   10.0   292    16.1   971.6    0.00 
  83   20:10   0.00   54.2    66    6.8   308    13.6   971.4    0.00 
  83   20:20   0.00   55.5    55    5.7   320    13.3   971.4    0.00 
  83   20:30   0.00   55.3    57    6.2   286    10.2   971.3    0.00 
  83   20:40   0.00   53.1    75    7.7   268    11.0   971.3    0.00 
  83   20:50   0.00   52.3    80    6.9   250    11.0   971.2    0.00 
  83   21:00   0.00   54.3    53   10.0   317    16.7   971.2    0.00 
  83   21:10   0.00   56.8    50    7.5   303    18.3   971.2    0.00 
  83   21:20   0.00   55.7    57    5.4   291    11.8   971.2    0.00 
  83   21:30   0.00   54.4    72    6.6   253    11.5   971.2    0.00 
  83   21:40   0.00   53.0    81    8.6   254    13.4   971.1    0.00 
  83   21:50   0.00   53.1    79    3.9   281     7.8   971.1    0.00 
  83   22:00   0.00   54.4    74    6.1   259    19.1   971.2    0.00 
  83   22:10   0.00   54.1    79   10.2   264    16.7   971.2    0.00 
  83   22:20   0.00   54.0    81   12.5   276    22.1   971.1    0.00 
  83   22:30   0.00   55.3    75   11.3   319    20.0   971.0    0.00 
  83   22:40   0.00   55.8    73   11.9   330    21.6   971.0    0.00 
  83   22:50   0.00   56.2    69   13.0   348    22.8   970.9    0.00 
  83   23:00   0.00   55.8    73    8.4   324    16.8   971.1    0.00 
  83   23:10   0.00   53.3    88    9.1   239    16.1   971.2    0.00 
  83   23:20   0.00   53.0    86    8.1   335    17.8   971.0    0.00 
  83   23:30   0.00   55.0    76    8.0   348    17.3   971.0    0.00 
  83   23:40   0.00   55.1    76    8.8   355    16.1   970.8    0.00 
  83   23:50   0.00   54.4    80    7.1   360    11.9   970.7    0.00 
  84    0:00   0.00   54.0    82    3.3   274     9.6   970.8    0.00 
  84    0:10   0.00   53.7    82    1.7   314     5.9   970.7    0.00 
  84    0:20   0.00   53.3    84    2.4   243     5.5   970.7    0.00 
  84    0:30   0.00   53.3    85    3.7   294    11.2   970.7    0.00 
  84    0:40   0.00   53.3    86    3.6   312    11.1   970.7    0.00 
  84    0:50   0.00   53.2    90    7.7   312    16.4   970.7    0.00 
  84    1:00   0.00   52.9    94   11.3   308    19.1   970.7    0.00 
  84    1:10   0.00   52.8    94    7.1   286    12.6   970.6    0.00 
  84    1:20   0.00   52.5    96    5.8   293    10.2   970.6    0.00 
  84    1:30   0.00   52.4    97    5.9   311    13.1   970.7    0.00 
  84    1:40   0.00   52.4    96    3.9   335    12.8   970.6    0.00 
  84    1:50   0.00   52.3    96    4.0   346     9.6   970.6    0.00 
  84    2:00   0.00   51.9    97    5.0   357     8.8   970.5    0.00 
  84    2:10   0.00   51.5    98    6.6     5    10.4   970.3    0.00 
  84    2:20   0.00   51.3    99    5.4   357     9.8   970.1    0.00 
  84    2:30   0.00   51.4    97    4.2    10     6.6   970.0    0.00 
  84    2:40   0.00   51.2    97    3.2   308     8.4   969.9    0.00 
  84    2:50   0.00   51.8    93    5.2   260    11.2   969.8    0.00 
  84    3:00   0.00   51.2    99   10.2   251    15.0   969.8    0.00 
  84    3:10   0.00   51.4   100    9.1   269    12.0   969.5    0.00 
  84    3:20   0.00   52.1    96    9.8   287    15.6   969.7    0.00 
  84    3:30   0.00   52.2    95   10.2   271    14.8   969.7    0.00 
  84    3:40   0.00   51.5    99   10.6   262    14.7   969.6    0.00 
  84    3:50   0.00   51.3   100    8.9   279    11.8   969.4    0.00 
  84    4:00   0.00   51.2   100   10.2   273    16.1   969.5    0.00 
  84    4:10   0.00   51.2   100   10.6   297    17.3   969.5    0.00 
  84    4:20   0.00   51.2   100    9.6   344    14.2   969.2    0.00 
  84    4:30   0.00   51.2   100   12.1   348    18.3   969.2    0.00 
  84    4:40   0.00   51.3   100   12.2   343    18.2   969.2    0.00 
  84    4:50   0.00   51.3   100   11.6   354    15.1   969.2    0.00 
  84    5:00   0.00   51.3   100    9.6   359    14.8   969.3    0.00 
  84    5:10   0.00   51.1   100    8.4   357    11.8   969.2    0.00 
  84    5:20   0.00   51.1   100    8.6   351    14.5   969.3    0.00 
  84    5:30   0.00   51.1   100    8.3     4    13.3   969.3    0.00 
  84    5:40   0.00   51.2   100    6.5   359     9.1   969.3    0.00 
  84    5:50   0.00   51.2   100    7.6   354    10.4   969.3    0.00 
  84    6:00   0.00   51.3   100    8.0    14     9.6   969.3    0.00 
  84    6:10   0.00   51.5   100    6.7     7     9.2   969.4    0.00 
  84    6:20   0.01   51.6   100    5.7     6     8.0   969.4    0.00 
  84    6:30   0.02   51.6   100    4.5   357     6.2   969.4    0.00 
  84    6:40   0.04   51.5   100    5.1   271     8.3   969.5    0.00 
  84    6:50   0.04   51.7   100    3.3   172     4.6   969.5    0.01 
  84    7:00   0.08   51.7   100    3.6   205     5.0   969.5    0.00 
  84    7:10   0.20   52.0   100    3.9   222     5.9   969.6    0.00 
  84    7:20   0.29   53.1   100    2.1   175     4.1   969.7    0.00 
  84    7:30   0.12   53.3   100    1.4   352     3.9   969.7    0.00 
  84    7:40   0.12   53.9   100    2.0    34     5.9   969.7    0.00 
  84    7:50   0.09   54.3   100    4.4    42     8.2   969.6    0.00 
  84    8:00   0.08   54.2   100    2.6    48     5.4   969.6    0.00 
  84    8:10   0.08   54.4   100    2.5    50     5.6   969.5    0.00 
  84    8:20   0.08   54.3   100    0.8    38     3.8   969.5    0.00 
  84    8:30   0.09   54.5   100    1.3    45     3.7   969.4    0.01 
  84    8:40   0.09   54.0   100    2.2    36     5.0   969.5    0.03 
  84    8:50   0.10   54.0   100    3.9    40     5.8   969.4    0.02 
  84    9:00   0.12   53.6   100    3.5    36     6.8   969.4    0.00 
  84    9:10   0.31   54.8   100    4.4    39     8.0   969.4    0.00 
  84    9:20   0.26   55.3   100    7.3    33    10.1   969.3    0.00 
  84    9:30   0.20   54.5   100    6.5    24     9.5   969.3    0.00 
  84    9:40   0.23   54.4   100    6.1    38     8.3   969.2    0.00 
  84    9:50   0.29   55.3   100    5.6    38     8.0   969.2    0.00 
  84   10:00   0.20   55.1   100    5.9    38     9.0   969.2    0.00 
  84   10:10   0.27   54.3   100    5.8    32     8.8   969.3    0.00 
  84   10:20   0.58   56.3   100    5.6    36     8.1   969.2    0.00 
  84   10:30   0.56   57.6   100    6.8    35    10.0   969.2    0.00 
  84   10:40   0.47   56.8    99    6.7    33     9.0   969.2    0.00 
  84   10:50   0.44   57.3   100    5.9    41     8.6   969.2    0.00 
  84   11:00   0.42   58.7    95    5.2    45     7.9   969.2    0.00 
  84   11:10   0.23   57.6    93    2.2    36     5.6   969.2    0.00 
  84   11:20   0.31   58.4    93    2.4    85     6.0   969.2    0.00 
  84   11:30   0.47   59.4    92    1.9    78     5.3   969.1    0.00 
  84   11:40   0.26   59.6    87    2.1    84     5.0   969.1    0.00 
  84   11:50   0.35   60.0    86    3.1    75     5.0   969.1    0.00 
  84   12:00   0.78   62.8    81    3.3    73     6.0   968.9    0.00 
  84   12:10   0.32   62.7    79    4.0    93     6.9   968.8    0.00 
  84   12:20   0.26   60.9    82    3.9    76     7.8   968.6    0.00 
  84   12:30   0.19   58.5    84    2.3    92     4.8   968.6    0.00 
  84   12:40   0.28   57.6    89    2.9   182     6.8   968.4    0.00 
  84   12:50   0.43   59.9    86    1.9   150     6.2   968.3    0.00 
  84   13:00   0.40   59.4    82    3.8    45     8.0   968.1    0.00 
  84   13:10   0.42   58.2    79    3.1   357     7.2   968.0    0.00 
  84   13:20   0.90   59.6    76    5.0   348     9.1   967.9    0.00 
  84   13:30   0.86   59.8    71    5.9   332    12.1   967.7    0.00 
  84   13:40   0.85   59.8    69    8.1   356    14.4   967.6    0.00 
  84   13:50   0.65   59.2    70    6.4   353    12.8   967.5    0.00 
  84   14:00   0.71   59.5    70    6.6    11    14.0   967.5    0.00 
  84   14:10   0.65   59.9    68    5.3     2    10.9   967.4    0.00 
  84   14:20   0.76   62.2    68    3.6     5    11.1   967.2    0.00 
  84   14:30   0.71   62.7    66    4.6   305    10.5   967.0    0.00 
  84   14:40   0.72   62.3    67    5.0   310     9.5   967.0    0.00 
  84   14:50   0.62   61.6    68    5.4   344    13.2   966.9    0.00 
  84   15:00   0.60   60.7    69    7.7   346    12.4   966.9    0.00 
  84   15:10   0.60   60.9    68    8.1   313    14.5   966.9    0.00 
  84   15:20   0.55   60.5    68    7.7   316    14.2   966.8    0.00 
  84   15:30   0.52   59.2    68   14.4   317    24.8   966.8    0.00 
  84   15:40   0.48   58.7    70   11.4   324    27.8   966.6    0.00 
  84   15:50   0.45   59.0    69   13.2   321    22.7   966.4    0.00 
  84   16:00   0.42   58.8    69   13.9   314    24.3   966.3    0.00 
  84   16:10   0.38   58.5    69   13.3   319    24.4   966.3    0.00 
  84   16:20   0.35   58.4    69   12.8   324    21.9   966.3    0.00 
  84   16:30   0.32   58.5    69   12.1   328    20.5   966.3    0.00 
  84   16:40   0.28   58.6    69   10.4   329    18.7   966.3    0.00 
  84   16:50   0.25   58.1    69   14.2   319    21.7   966.3    0.00 

Return to Valley Peak, Santa Cruz Island Reserve graphs page.


Western Regional Climate Center,wrcc@dri.edu